Time;durP1;ratioP1;P1;durP2;ratioP2;P2;SDS_P1;SDS_P2;PMS_P1;PMS_P2;Temp;Humidity;BMP_temperature;BMP_pressure;BME280_temperature;BME280_humidity;BME280_pressure;Samples;Min_cycle;Max_cycle;Signal;HPM_P1;HPM_P2
2022/10/21 00:03:49;;;;;;;4.90;2.40;;;;;15.80;100219.00;;;;10297983;28;20258;-77
2022/10/21 00:08:50;;;;;;;5.50;2.22;;;;;15.80;100222.00;;;;10324763;28;20682;-77
2022/10/21 00:13:51;;;;;;;6.57;2.28;;;;;15.80;100217.00;;;;10307442;28;20203;-77
2022/10/21 00:18:52;;;;;;;3.58;2.15;;;;;15.60;100210.00;;;;10333604;28;20219;-77
2022/10/21 00:23:53;;;;;;;6.88;2.45;;;;;15.50;100207.00;;;;10301708;28;20206;-77
2022/10/21 00:28:56;;;;;;;7.95;2.45;;;;;15.30;100203.00;;;;10257188;28;20212;-77
2022/10/21 00:33:57;;;;;;;3.05;2.00;;;;;15.20;100202.00;;;;10341276;28;20239;-77
2022/10/21 00:38:58;;;;;;;5.13;2.05;;;;;15.10;100197.00;;;;10332726;28;20284;-77
2022/10/21 00:44:05;;;;;;;4.00;1.77;;;;;15.10;100185.00;;;;10339340;28;20661;-77
2022/10/21 00:49:22;;;;;;;4.32;2.25;;;;;14.90;100184.00;;;;10299490;28;20316;-77
2022/10/21 00:54:25;;;;;;;3.15;2.22;;;;;14.80;100178.00;;;;10292747;28;20800;-77
2022/10/21 00:59:32;;;;;;;3.63;2.15;;;;;14.60;100176.00;;;;10350760;28;20204;-77
2022/10/21 01:04:33;;;;;;;3.47;1.67;;;;;14.60;100179.00;;;;10325857;28;20377;-77
2022/10/21 01:09:34;;;;;;;3.88;1.80;;;;;14.60;100165.00;;;;10324698;28;20282;-76
2022/10/21 01:15:09;;;;;;;5.43;2.20;;;;;14.60;100161.00;;;;10292691;28;20222;-78
2022/10/21 01:20:38;;;;;;;5.03;2.10;;;;;14.50;100152.00;;;;10365296;28;20205;-77
2022/10/21 01:26:07;;;;;;;3.80;1.83;;;;;14.50;100141.00;;;;10317180;28;20737;-77
2022/10/21 01:31:26;;;;;;;4.93;1.80;;;;;14.40;100136.00;;;;10345384;28;20204;-76
2022/10/21 01:36:52;;;;;;;2.00;1.55;;;;;14.30;100127.00;;;;10327412;28;20601;-77
2022/10/21 01:42:00;;;;;;;5.53;2.08;;;;;14.20;100128.00;;;;10332879;28;20217;-77
2022/10/21 01:47:21;;;;;;;3.38;1.77;;;;;14.30;100117.00;;;;10338142;28;20200;-77
2022/10/21 01:52:22;;;;;;;4.07;1.60;;;;;14.30;100109.00;;;;10339073;28;20238;-77
2022/10/21 01:57:29;;;;;;;3.33;1.70;;;;;14.30;100112.00;;;;10334438;28;20223;-77
2022/10/21 02:02:33;;;;;;;4.25;1.58;;;;;14.20;100115.00;;;;10318367;28;20211;-77
2022/10/21 02:07:35;;;;;;;5.95;1.40;;;;;14.00;100104.00;;;;10323252;28;20217;-77
2022/10/21 02:12:39;;;;;;;2.83;1.45;;;;;13.90;100096.00;;;;10329081;28;20621;-77
2022/10/21 02:17:50;;;;;;;5.13;2.13;;;;;13.80;100095.00;;;;10307967;28;21025;-77
2022/10/21 02:22:52;;;;;;;3.47;1.50;;;;;13.70;100084.00;;;;10344253;28;20200;-77
2022/10/21 02:27:53;;;;;;;4.05;1.58;;;;;13.70;100090.00;;;;10328740;28;20279;-77
2022/10/21 02:33:18;;;;;;;2.33;1.40;;;;;13.60;100081.00;;;;10316698;28;20226;-77
2022/10/21 02:38:35;;;;;;;4.20;2.33;;;;;13.60;100073.00;;;;10313493;28;20278;-77
2022/10/21 02:43:41;;;;;;;3.60;1.77;;;;;13.40;100077.00;;;;10317787;28;20651;-77
2022/10/21 02:48:45;;;;;;;2.45;1.55;;;;;13.50;100074.00;;;;10304141;28;20207;-77
2022/10/21 02:53:46;;;;;;;5.45;1.95;;;;;13.50;100060.00;;;;10318141;28;20295;-77
2022/10/21 02:58:47;;;;;;;5.73;1.53;;;;;13.50;100060.00;;;;10333605;28;20781;-77
2022/10/21 03:03:48;;;;;;;3.63;2.13;;;;;13.50;100044.00;;;;10319067;28;20223;-77
2022/10/21 03:08:49;;;;;;;5.20;2.60;;;;;13.40;100051.00;;;;10313142;28;20286;-77
2022/10/21 03:13:51;;;;;;;2.88;1.80;;;;;13.30;100043.00;;;;10327663;28;20223;-77
2022/10/21 03:18:52;;;;;;;2.67;2.00;;;;;13.40;100042.00;;;;10306909;28;20262;-77
2022/10/21 03:23:53;;;;;;;3.17;1.77;;;;;13.30;100046.00;;;;10346143;28;20222;-77
2022/10/21 03:28:54;;;;;;;3.97;1.80;;;;;13.20;100044.00;;;;10321733;28;20223;-77
2022/10/21 03:33:55;;;;;;;3.13;1.70;;;;;13.10;100058.00;;;;10300813;28;20250;-77
2022/10/21 03:38:56;;;;;;;3.83;1.20;;;;;12.90;100052.00;;;;10342519;28;20226;-77
2022/10/21 03:43:58;;;;;;;3.50;1.57;;;;;12.80;100057.00;;;;10307537;28;20206;-77
2022/10/21 03:48:59;;;;;;;4.23;1.23;;;;;12.60;100055.00;;;;10330250;28;20203;-77
2022/10/21 03:54:06;;;;;;;2.80;1.57;;;;;12.70;100068.00;;;;10289455;28;20314;-77
2022/10/21 03:59:07;;;;;;;5.67;1.80;;;;;12.70;100060.00;;;;10338479;28;20306;-77
2022/10/21 04:04:08;;;;;;;4.63;1.87;;;;;12.60;100051.00;;;;10334163;28;20234;-77
2022/10/21 04:09:09;;;;;;;3.27;1.47;;;;;12.60;100056.00;;;;10346093;28;20212;-77
2022/10/21 04:14:11;;;;;;;2.83;1.50;;;;;12.60;100043.00;;;;10330703;28;20210;-77
2022/10/21 04:19:17;;;;;;;3.80;1.67;;;;;12.50;100057.00;;;;10333180;28;20193;-77
2022/10/21 04:24:18;;;;;;;4.00;2.10;;;;;12.50;100046.00;;;;10323865;28;20291;-77
2022/10/21 04:29:20;;;;;;;2.10;1.40;;;;;12.50;100051.00;;;;10342645;28;20203;-77
2022/10/21 04:34:21;;;;;;;3.30;1.73;;;;;12.50;100054.00;;;;10345962;28;20219;-77
2022/10/21 04:39:22;;;;;;;5.07;1.97;;;;;12.60;100044.00;;;;10325770;28;20204;-77
2022/10/21 04:44:23;;;;;;;3.00;1.80;;;;;12.60;100042.00;;;;10344586;28;20203;-76
2022/10/21 04:49:24;;;;;;;4.73;1.90;;;;;12.60;100036.00;;;;10332868;28;20204;-77
2022/10/21 04:54:25;;;;;;;4.43;2.07;;;;;12.80;100035.00;;;;10294928;28;20844;-77
2022/10/21 04:59:26;;;;;;;10.70;2.10;;;;;13.10;100021.00;;;;10347478;28;20200;-77
2022/10/21 05:04:27;;;;;;;8.33;2.40;;;;;13.40;100013.00;;;;10291969;28;20212;-77
2022/10/21 05:09:28;;;;;;;8.27;3.63;;;;;13.60;100028.00;;;;10312894;28;20200;-77
2022/10/21 05:14:30;;;;;;;5.70;1.90;;;;;13.80;100026.00;;;;10306657;28;20205;-77
2022/10/21 05:19:31;;;;;;;2.87;1.70;;;;;13.90;100022.00;;;;10321523;28;20197;-77
2022/10/21 05:24:32;;;;;;;3.47;1.88;;;;;14.00;100012.00;;;;10317908;28;20725;-77
2022/10/21 05:29:33;;;;;;;7.05;2.35;;;;;14.10;100013.00;;;;10290148;28;20204;-78
2022/10/21 05:34:34;;;;;;;5.45;2.40;;;;;14.30;100017.00;;;;10298359;28;20247;-77
2022/10/21 05:39:36;;;;;;;4.32;2.38;;;;;14.40;100008.00;;;;10287779;28;20850;-77
2022/10/21 05:44:37;;;;;;;5.68;2.53;;;;;14.50;99997.00;;;;10344090;28;20263;-77
2022/10/21 05:49:38;;;;;;;3.72;2.20;;;;;14.50;99983.00;;;;10281784;28;20749;-77
2022/10/21 05:54:39;;;;;;;8.02;2.50;;;;;14.50;99972.00;;;;10358161;28;20838;-77
2022/10/21 05:59:40;;;;;;;7.03;2.85;;;;;14.50;99986.00;;;;10326530;28;20680;-77
2022/10/21 06:04:42;;;;;;;4.00;2.40;;;;;14.50;99993.00;;;;10352393;28;20897;-77
2022/10/21 06:09:43;;;;;;;7.13;2.47;;;;;14.60;99993.00;;;;10338510;28;20203;-77
2022/10/21 06:14:44;;;;;;;7.68;2.95;;;;;14.70;99993.00;;;;10295858;28;20249;-77
2022/10/21 06:19:45;;;;;;;4.80;2.65;;;;;14.70;99999.00;;;;10301981;28;20290;-76
2022/10/21 06:24:51;;;;;;;6.40;3.45;;;;;14.70;100019.00;;;;10315478;28;20206;-77
2022/10/21 06:29:53;;;;;;;9.27;3.50;;;;;14.80;100001.00;;;;10329272;28;20280;-77
2022/10/21 06:34:54;;;;;;;10.55;3.47;;;;;14.80;100013.00;;;;10342745;28;20215;-77
2022/10/21 06:39:55;;;;;;;5.38;2.22;;;;;14.80;100015.00;;;;10315270;28;20811;-76
2022/10/21 06:44:57;;;;;;;6.38;2.20;;;;;14.80;100038.00;;;;10319340;28;20778;-77
2022/10/21 06:50:02;;;;;;;7.38;2.90;;;;;14.80;100041.00;;;;10330770;28;20207;-77
2022/10/21 06:55:05;;;;;;;8.25;2.42;;;;;14.80;100052.00;;;;10318686;28;20219;-77
2022/10/21 07:00:06;;;;;;;77.38;13.38;;;;;14.80;100066.00;;;;10334154;28;20196;-77
2022/10/21 07:05:08;;;;;;;15.30;5.78;;;;;14.90;100066.00;;;;10355511;28;20231;-77
2022/10/21 07:10:09;;;;;;;11.35;3.80;;;;;14.90;100068.00;;;;10362984;28;20215;-77
2022/10/21 07:15:10;;;;;;;8.27;3.42;;;;;15.00;100068.00;;;;10329029;28;20211;-77
2022/10/21 07:20:11;;;;;;;4.97;2.67;;;;;15.10;100063.00;;;;10354178;28;20290;-77
2022/10/21 07:25:12;;;;;;;6.07;3.10;;;;;15.20;100065.00;;;;10343769;28;20716;-77
2022/10/21 07:30:13;;;;;;;4.07;2.78;;;;;15.20;100094.00;;;;10325369;28;20208;-77
2022/10/21 07:35:15;;;;;;;4.22;2.58;;;;;15.30;100101.00;;;;10321066;28;20234;-77
2022/10/21 07:40:16;;;;;;;7.82;3.03;;;;;15.40;100099.00;;;;10311722;28;20207;-77
2022/10/21 07:45:17;;;;;;;5.90;2.58;;;;;15.60;100107.00;;;;10305403;28;20679;-77
2022/10/21 07:50:18;;;;;;;4.93;2.20;;;;;15.90;100109.00;;;;10291876;28;20204;-77
2022/10/21 07:55:19;;;;;;;4.88;2.75;;;;;16.10;100119.00;;;;10340558;28;20507;-77
2022/10/21 08:00:21;;;;;;;6.22;2.58;;;;;16.40;100116.00;;;;10351113;28;20207;-78
2022/10/21 08:05:22;;;;;;;7.20;2.22;;;;;16.60;100112.00;;;;10329398;28;20223;-78
2022/10/21 08:10:23;;;;;;;6.82;2.40;;;;;16.70;100107.00;;;;10317907;28;20199;-77
2022/10/21 08:15:25;;;;;;;3.78;1.90;;;;;16.80;100099.00;;;;10338033;28;20753;-77
2022/10/21 08:20:26;;;;;;;2.92;1.80;;;;;16.90;100103.00;;;;10292799;28;20215;-77
2022/10/21 08:25:28;;;;;;;3.63;1.90;;;;;17.00;100111.00;;;;10315208;28;20282;-77
2022/10/21 08:30:30;;;;;;;4.03;1.60;;;;;17.10;100118.00;;;;10304782;28;20239;-76
2022/10/21 08:35:32;;;;;;;3.53;1.75;;;;;17.20;100118.00;;;;10352830;28;20211;-78
2022/10/21 08:40:38;;;;;;;3.50;1.60;;;;;17.30;100124.00;;;;10357637;28;20275;-77
2022/10/21 08:45:51;;;;;;;3.83;1.67;;;;;17.50;100123.00;;;;10333968;28;20196;-77
2022/10/21 08:50:55;;;;;;;3.95;1.80;;;;;17.80;100134.00;;;;10326228;28;20204;-77
2022/10/21 08:56:03;;;;;;;4.45;1.48;;;;;18.10;100140.00;;;;10302451;28;20554;-77
2022/10/21 09:01:33;;;;;;;5.88;2.45;;;;;18.40;100160.00;;;;10354539;28;20196;-77
2022/10/21 09:06:50;;;;;;;2.35;1.20;;;;;18.60;100158.00;;;;10340249;28;20230;-77
2022/10/21 09:12:05;;;;;;;8.57;1.30;;;;;18.60;100167.00;;;;10337293;28;20203;-77
2022/10/21 09:17:41;;;;;;;4.95;1.05;;;;;19.00;100164.00;;;;10311941;28;20293;-77
2022/10/21 09:23:11;;;;;;;1.55;0.88;;;;;19.10;100165.00;;;;10313425;28;20200;-77
2022/10/21 09:28:14;;;;;;;1.65;0.70;;;;;19.70;100176.00;;;;10311611;28;20231;-77
2022/10/21 09:33:24;;;;;;;0.85;0.65;;;;;20.00;100170.00;;;;10301679;28;20203;-77
2022/10/21 09:38:52;;;;;;;1.85;0.73;;;;;20.10;100181.00;;;;10312330;28;20250;-78
2022/10/21 09:43:54;;;;;;;2.10;0.60;;;;;19.90;100183.00;;;;10324998;28;20790;-76
2022/10/21 09:48:56;;;;;;;1.77;0.50;;;;;19.80;100185.00;;;;10357228;28;20203;-77
2022/10/21 09:54:24;;;;;;;0.65;0.65;;;;;19.90;100166.00;;;;10341917;28;20195;-76
2022/10/21 09:59:25;;;;;;;1.80;0.60;;;;;20.20;100175.00;;;;10340508;28;20211;-77
2022/10/21 10:04:34;;;;;;;1.63;0.88;;;;;20.50;100169.00;;;;10316917;28;20223;-77
2022/10/21 10:09:36;;;;;;;2.50;0.85;;;;;20.40;100160.00;;;;10326700;28;20196;-77
2022/10/21 10:14:46;;;;;;;3.72;0.68;;;;;20.30;100174.00;;;;10317217;28;20203;-76
2022/10/21 10:20:06;;;;;;;1.02;0.80;;;;;20.10;100182.00;;;;10339431;28;20290;-77
2022/10/21 10:25:13;;;;;;;0.90;0.70;;;;;19.90;100197.00;;;;10339849;28;20594;-76
2022/10/21 10:30:15;;;;;;;0.98;0.60;;;;;19.70;100212.00;;;;10351275;28;20804;-77
2022/10/21 10:35:31;;;;;;;2.72;0.82;;;;;20.00;100200.00;;;;10345740;28;20215;-77
2022/10/21 10:40:40;;;;;;;1.40;0.82;;;;;20.20;100194.00;;;;10320898;28;20289;-77
2022/10/21 10:45:52;;;;;;;3.63;0.82;;;;;20.10;100192.00;;;;10341463;28;20206;-77
2022/10/21 10:50:53;;;;;;;1.33;0.70;;;;;20.30;100204.00;;;;10317463;28;20599;-77
2022/10/21 10:56:21;;;;;;;2.70;0.80;;;;;20.50;100215.00;;;;10348743;28;20219;-77
2022/10/21 11:01:34;;;;;;;1.55;0.60;;;;;20.60;100214.00;;;;10371819;28;20284;-77
2022/10/21 11:06:47;;;;;;;2.13;1.15;;;;;20.80;100206.00;;;;10296581;28;20275;-77
2022/10/21 11:11:53;;;;;;;4.13;1.35;;;;;20.60;100205.00;;;;10320005;28;20215;-77
2022/10/21 11:17:05;;;;;;;3.33;1.10;;;;;20.60;100198.00;;;;10313999;28;20675;-77
2022/10/21 11:22:12;;;;;;;1.02;0.80;;;;;21.00;100195.00;;;;10331018;28;20196;-77
2022/10/21 11:27:33;;;;;;;1.63;0.90;;;;;21.30;100197.00;;;;10359025;28;20195;-77
2022/10/21 11:33:12;;;;;;;2.33;1.00;;;;;21.90;100192.00;;;;10334826;28;21460;-77
2022/10/21 11:38:27;;;;;;;2.33;0.98;;;;;22.40;100183.00;;;;10353971;28;20222;-77
2022/10/21 11:43:48;;;;;;;3.85;0.98;;;;;23.70;100204.00;;;;10353130;28;20198;-77
2022/10/21 11:48:58;;;;;;;3.63;1.05;;;;;24.50;100203.00;;;;10331337;28;20219;-77
2022/10/21 11:54:12;;;;;;;3.40;1.17;;;;;24.50;100212.00;;;;10334641;28;20227;-77
2022/10/21 11:59:40;;;;;;;0.85;0.70;;;;;24.10;100211.00;;;;10305699;28;20231;-76
2022/10/21 12:05:19;;;;;;;1.90;0.73;;;;;23.60;100201.00;;;;10328254;28;20208;-77
2022/10/21 12:10:29;;;;;;;2.08;0.95;;;;;23.60;100201.00;;;;10326018;28;20207;-76
2022/10/21 12:15:42;;;;;;;2.50;0.60;;;;;23.60;100204.00;;;;10342407;28;20220;-77
2022/10/21 12:20:47;;;;;;;2.42;0.90;;;;;23.50;100204.00;;;;10362701;28;20202;-77
2022/10/21 12:26:14;;;;;;;4.95;0.68;;;;;23.30;100200.00;;;;10322559;28;20234;-76
2022/10/21 12:31:33;;;;;;;1.63;0.70;;;;;23.50;100184.00;;;;10336619;28;20196;-77
2022/10/21 12:36:36;;;;;;;0.80;0.70;;;;;23.50;100192.00;;;;10311952;28;20302;-77
2022/10/21 12:41:38;;;;;;;3.05;1.00;;;;;23.50;100182.00;;;;10328156;28;20208;-77
2022/10/21 12:46:50;;;;;;;3.00;0.90;;;;;23.70;100173.00;;;;10317151;28;20199;-77
2022/10/21 12:52:03;;;;;;;2.25;0.80;;;;;23.70;100187.00;;;;10325281;28;20200;-77
2022/10/21 12:57:07;;;;;;;1.75;0.85;;;;;23.60;100191.00;;;;10305626;28;20255;-77
2022/10/21 13:02:25;;;;;;;1.73;1.02;;;;;23.30;100187.00;;;;10353459;28;20278;-76
2022/10/21 13:07:30;;;;;;;2.13;0.70;;;;;22.90;100187.00;;;;10317300;28;20231;-76
2022/10/21 13:12:32;;;;;;;1.58;0.70;;;;;22.40;100179.00;;;;10312079;28;20207;-77
2022/10/21 13:17:54;;;;;;;2.15;0.65;;;;;22.10;100181.00;;;;10333064;28;21042;-77
2022/10/21 13:23:30;;;;;;;2.75;0.52;;;;;21.90;100174.00;;;;10352366;28;20210;-77
2022/10/21 13:28:33;;;;;;;1.67;0.70;;;;;21.80;100171.00;;;;10332490;28;20203;-77
2022/10/21 13:33:36;;;;;;;2.45;1.33;;;;;21.70;100174.00;;;;10338227;28;20204;-77
2022/10/21 13:38:49;;;;;;;1.55;0.63;;;;;21.50;100177.00;;;;10341325;28;20686;-77
2022/10/21 13:43:57;;;;;;;1.30;0.50;;;;;21.30;100178.00;;;;10319956;28;20221;-77
2022/10/21 13:48:59;;;;;;;1.85;0.57;;;;;21.20;100181.00;;;;10329636;28;20215;-76
2022/10/21 13:54:15;;;;;;;1.23;0.43;;;;;21.50;100182.00;;;;10287291;28;129093;-77
2022/10/21 13:59:24;;;;;;;2.83;0.65;;;;;21.60;100170.00;;;;10277566;28;20215;-77
2022/10/21 14:04:29;;;;;;;4.82;1.42;;;;;21.20;100177.00;;;;10277592;28;20259;-77
2022/10/21 14:09:41;;;;;;;2.53;0.77;;;;;21.10;100172.00;;;;10271962;28;20208;-77
2022/10/21 14:14:43;;;;;;;2.45;0.80;;;;;20.90;100171.00;;;;10298690;28;20204;-77
2022/10/21 14:19:52;;;;;;;1.52;0.50;;;;;21.70;100166.00;;;;10337720;28;20192;-77
2022/10/21 14:24:56;;;;;;;1.63;0.63;;;;;21.10;100179.00;;;;10326804;28;20200;-77
2022/10/21 14:30:02;;;;;;;4.50;0.60;;;;;20.90;100179.00;;;;10308539;28;20243;-77
2022/10/21 14:35:07;;;;;;;2.15;0.98;;;;;20.80;100181.00;;;;10303955;28;20678;-77
2022/10/21 14:40:38;;;;;;;4.47;0.60;;;;;21.00;100174.00;;;;10323626;28;20195;-77
2022/10/21 14:45:49;;;;;;;1.38;0.52;;;;;22.10;100177.00;;;;10282748;28;20195;-77
2022/10/21 14:50:54;;;;;;;0.82;0.47;;;;;21.50;100169.00;;;;10319276;28;20219;-77
2022/10/21 14:55:59;;;;;;;1.38;0.70;;;;;21.10;100177.00;;;;10278009;28;20212;-77
2022/10/21 15:01:16;;;;;;;2.33;0.57;;;;;20.80;100167.00;;;;10281866;28;20202;-77
2022/10/21 15:06:17;;;;;;;3.00;0.55;;;;;20.40;100161.00;;;;10266338;28;20677;-77
2022/10/21 15:11:22;;;;;;;0.73;0.40;;;;;20.10;100164.00;;;;10310021;28;20195;-77
2022/10/21 15:16:29;;;;;;;1.35;0.60;;;;;19.90;100168.00;;;;10301354;28;20208;-77
2022/10/21 15:21:38;;;;;;;1.25;0.50;;;;;19.70;100170.00;;;;10274496;28;20252;-77
2022/10/21 15:26:44;;;;;;;1.23;0.50;;;;;19.50;100171.00;;;;10331445;28;20207;-77
2022/10/21 15:31:46;;;;;;;1.13;0.52;;;;;19.40;100175.00;;;;10309364;28;20196;-77
2022/10/21 15:36:48;;;;;;;0.95;0.82;;;;;19.30;100166.00;;;;10340808;28;20238;-77
2022/10/21 15:41:53;;;;;;;1.23;0.47;;;;;19.20;100164.00;;;;10318606;28;20206;-77
2022/10/21 15:46:59;;;;;;;2.05;0.50;;;;;19.10;100161.00;;;;10290901;28;20271;-77
2022/10/21 15:52:01;;;;;;;1.55;0.60;;;;;19.00;100173.00;;;;10280787;28;20548;-77
2022/10/21 15:57:14;;;;;;;3.47;0.80;;;;;18.90;100175.00;;;;10300991;28;20212;-76
2022/10/21 16:02:16;;;;;;;2.17;0.40;;;;;18.70;100180.00;;;;10308094;28;20209;-77
2022/10/21 16:07:32;;;;;;;0.98;0.40;;;;;18.60;100181.00;;;;10312208;28;20216;-77
2022/10/21 16:12:33;;;;;;;2.13;0.70;;;;;18.40;100185.00;;;;10287804;28;20291;-77
2022/10/21 16:17:36;;;;;;;0.43;0.43;;;;;18.20;100191.00;;;;10309033;28;20208;-76
2022/10/21 16:22:38;;;;;;;2.10;0.73;;;;;18.00;100193.00;;;;10269813;28;20197;-77
2022/10/21 16:27:40;;;;;;;2.55;0.65;;;;;17.90;100192.00;;;;10303974;28;20246;-77
2022/10/21 16:32:57;;;;;;;4.63;0.60;;;;;17.70;100191.00;;;;10307195;28;20303;-77
2022/10/21 16:37:59;;;;;;;1.63;0.70;;;;;17.50;100191.00;;;;10316860;28;20678;-77
2022/10/21 16:43:01;;;;;;;5.90;1.08;;;;;17.40;100189.00;;;;10315872;28;20283;-77
2022/10/21 16:48:03;;;;;;;3.40;0.77;;;;;17.40;100195.00;;;;10297217;28;20192;-77
2022/10/21 16:53:11;;;;;;;2.30;0.90;;;;;17.40;100199.00;;;;10307637;28;20255;-77
2022/10/21 16:58:13;;;;;;;1.77;0.70;;;;;17.30;100208.00;;;;10300438;28;20575;-77
2022/10/21 17:03:15;;;;;;;1.77;0.57;;;;;17.30;100209.00;;;;10274326;28;20256;-77
2022/10/21 17:08:17;;;;;;;2.55;0.82;;;;;17.20;100203.00;;;;10293366;28;20559;-77
2022/10/21 17:13:19;;;;;;;4.80;0.80;;;;;17.10;100211.00;;;;10321281;28;20188;-77
2022/10/21 17:18:21;;;;;;;1.58;0.70;;;;;17.10;100211.00;;;;10307632;28;20208;-77
2022/10/21 17:23:23;;;;;;;1.60;0.90;;;;;17.00;100223.00;;;;10306715;28;20207;-77
2022/10/21 17:28:25;;;;;;;1.30;0.60;;;;;17.00;100215.00;;;;10281023;28;20185;-77
2022/10/21 17:33:27;;;;;;;1.90;0.80;;;;;17.00;100225.00;;;;10288858;28;20199;-77
2022/10/21 17:38:29;;;;;;;2.55;1.00;;;;;17.10;100221.00;;;;10298020;28;20315;-77
2022/10/21 17:43:31;;;;;;;4.60;1.10;;;;;17.00;100226.00;;;;10308193;28;20258;-77
2022/10/21 17:48:33;;;;;;;2.65;1.02;;;;;16.90;100236.00;;;;10292109;28;20279;-77
2022/10/21 17:53:34;;;;;;;6.55;1.10;;;;;16.80;100248.00;;;;10320106;28;20200;-76
2022/10/21 17:58:36;;;;;;;3.15;1.10;;;;;16.80;100257.00;;;;10287445;28;20204;-77
2022/10/21 18:03:38;;;;;;;3.60;1.00;;;;;16.80;100257.00;;;;10322824;28;20243;-77
2022/10/21 18:08:41;;;;;;;2.42;0.82;;;;;16.80;100265.00;;;;10293030;28;20287;-77
2022/10/21 18:13:44;;;;;;;2.20;0.82;;;;;16.80;100272.00;;;;10303869;28;20279;-77
2022/10/21 18:18:46;;;;;;;4.32;1.27;;;;;16.80;100261.00;;;;10274767;28;20328;-77
2022/10/21 18:23:52;;;;;;;1.50;0.93;;;;;16.70;100267.00;;;;10264038;28;20204;-76
2022/10/21 18:28:56;;;;;;;0.88;0.77;;;;;16.70;100265.00;;;;10310297;28;20969;-77
2022/10/21 18:34:00;;;;;;;3.33;1.13;;;;;16.70;100274.00;;;;10293686;28;20247;-77
2022/10/21 18:39:03;;;;;;;5.25;1.40;;;;;16.70;100261.00;;;;10324601;28;20204;-77
2022/10/21 18:44:07;;;;;;;3.10;1.17;;;;;16.80;100263.00;;;;10308753;28;20180;-76
2022/10/21 18:49:14;;;;;;;4.65;1.30;;;;;16.70;100261.00;;;;10295510;28;20192;-77
2022/10/21 18:54:16;;;;;;;3.30;1.40;;;;;16.70;100250.00;;;;10297407;28;20223;-76
2022/10/21 18:59:18;;;;;;;4.65;1.10;;;;;16.60;100248.00;;;;10291332;28;20208;-76
2022/10/21 19:04:19;;;;;;;2.47;1.30;;;;;16.60;100240.00;;;;10321100;28;20228;-77
2022/10/21 19:09:27;;;;;;;6.07;1.30;;;;;16.60;100248.00;;;;10320091;28;20570;-77
2022/10/21 19:14:31;;;;;;;3.85;1.33;;;;;16.50;100245.00;;;;10309807;28;20196;-77
2022/10/21 19:19:33;;;;;;;4.13;1.50;;;;;16.50;100247.00;;;;10297058;28;20669;-77
2022/10/21 19:24:40;;;;;;;3.42;1.40;;;;;16.50;100242.00;;;;10280977;28;20191;-77
2022/10/21 19:29:42;;;;;;;4.03;1.40;;;;;16.40;100238.00;;;;10325773;28;20368;-77
2022/10/21 19:34:44;;;;;;;4.15;1.50;;;;;16.40;100241.00;;;;10325595;28;20299;-77
2022/10/21 19:39:46;;;;;;;7.50;1.90;;;;;16.30;100237.00;;;;10300467;28;20212;-77
2022/10/21 19:44:48;;;;;;;2.33;1.30;;;;;16.40;100240.00;;;;10275051;28;20193;-77
2022/10/21 19:49:49;;;;;;;4.45;1.52;;;;;16.30;100235.00;;;;10289606;28;20200;-77
2022/10/21 19:54:51;;;;;;;4.28;2.17;;;;;16.20;100244.00;;;;10298438;28;20202;-76
2022/10/21 19:59:53;;;;;;;5.75;1.92;;;;;16.20;100246.00;;;;10287408;28;20200;-76
2022/10/21 20:04:55;;;;;;;4.40;1.80;;;;;16.20;100261.00;;;;10255312;28;20212;-76
2022/10/21 20:09:57;;;;;;;5.85;1.80;;;;;16.20;100260.00;;;;10274809;28;20200;-76
2022/10/21 20:14:59;;;;;;;4.15;1.55;;;;;16.20;100270.00;;;;10305660;28;20247;-76
2022/10/21 20:20:01;;;;;;;5.05;1.55;;;;;16.20;100262.00;;;;10286456;28;20348;-76
2022/10/21 20:25:03;;;;;;;6.30;1.60;;;;;16.20;100269.00;;;;10256991;28;20255;-76
2022/10/21 20:30:06;;;;;;;7.53;1.98;;;;;16.20;100273.00;;;;10282391;28;20247;-76
2022/10/21 20:35:08;;;;;;;4.57;1.88;;;;;16.10;100275.00;;;;10311635;28;20206;-76
2022/10/21 20:40:10;;;;;;;7.63;2.30;;;;;16.10;100281.00;;;;10273170;28;20208;-76
2022/10/21 20:45:12;;;;;;;7.97;1.98;;;;;16.10;100280.00;;;;10269955;28;20304;-76
2022/10/21 20:50:14;;;;;;;7.05;2.30;;;;;16.10;100293.00;;;;10308431;28;20219;-76
2022/10/21 20:55:17;;;;;;;5.47;2.45;;;;;16.00;100289.00;;;;10271518;28;20500;-76
2022/10/21 21:00:19;;;;;;;5.00;2.10;;;;;16.00;100293.00;;;;10329685;28;20208;-76
2022/10/21 21:05:21;;;;;;;5.05;2.08;;;;;16.00;100288.00;;;;10309856;28;20326;-76
2022/10/21 21:10:22;;;;;;;5.30;2.30;;;;;15.90;100289.00;;;;10294132;28;20196;-76
2022/10/21 21:15:25;;;;;;;7.22;2.72;;;;;15.90;100304.00;;;;10264116;28;20197;-77
2022/10/21 21:20:27;;;;;;;3.78;2.17;;;;;15.80;100306.00;;;;10325382;28;20782;-76
2022/10/21 21:25:29;;;;;;;8.60;1.90;;;;;15.70;100322.00;;;;10289823;28;20195;-76
2022/10/21 21:30:34;;;;;;;3.75;2.13;;;;;15.60;100308.00;;;;10332696;28;20193;-77
2022/10/21 21:35:36;;;;;;;7.25;2.35;;;;;15.50;100314.00;;;;10329092;28;20685;-77
2022/10/21 21:40:38;;;;;;;5.03;2.38;;;;;15.50;100318.00;;;;10343146;28;20211;-77
2022/10/21 21:45:45;;;;;;;6.72;2.38;;;;;15.50;100319.00;;;;10300267;28;20193;-76
2022/10/21 21:50:48;;;;;;;8.20;2.60;;;;;15.40;100311.00;;;;10302424;28;20383;-77
2022/10/21 21:55:49;;;;;;;6.13;2.38;;;;;15.40;100313.00;;;;10295494;28;20204;-77
2022/10/21 22:00:51;;;;;;;4.28;2.38;;;;;15.40;100323.00;;;;10300500;28;20216;-77
2022/10/21 22:05:53;;;;;;;7.97;2.03;;;;;15.40;100317.00;;;;10307501;28;20216;-77
2022/10/21 22:10:55;;;;;;;7.20;2.28;;;;;15.30;100322.00;;;;10329233;28;20210;-77
2022/10/21 22:15:57;;;;;;;6.03;2.50;;;;;15.20;100314.00;;;;10301016;28;20203;-77
2022/10/21 22:21:02;;;;;;;7.75;2.78;;;;;15.10;100317.00;;;;10305066;28;20228;-77
2022/10/21 22:26:06;;;;;;;8.48;2.88;;;;;15.00;100293.00;;;;10288094;28;20299;-77
2022/10/21 22:31:12;;;;;;;6.20;2.33;;;;;14.90;100296.00;;;;10312286;28;20217;-78
2022/10/21 22:36:15;;;;;;;8.60;2.53;;;;;14.80;100293.00;;;;10317601;28;20287;-78
2022/10/21 22:41:17;;;;;;;11.45;2.63;;;;;14.70;100284.00;;;;10286458;28;20227;-78
2022/10/21 22:46:19;;;;;;;6.38;2.63;;;;;14.70;100282.00;;;;10320285;28;20223;-78
2022/10/21 22:51:34;;;;;;;6.60;2.45;;;;;14.50;100287.00;;;;10310117;28;20211;-78
2022/10/21 22:56:37;;;;;;;5.18;2.30;;;;;14.40;100284.00;;;;10345477;28;20306;-78
2022/10/21 23:01:38;;;;;;;7.18;2.03;;;;;14.30;100292.00;;;;10308293;28;20555;-78
2022/10/21 23:06:40;;;;;;;8.02;2.35;;;;;14.30;100281.00;;;;10318202;28;20642;-77
2022/10/21 23:11:43;;;;;;;6.38;2.90;;;;;14.20;100285.00;;;;10318343;28;20266;-78
2022/10/21 23:16:45;;;;;;;8.88;2.90;;;;;14.10;100286.00;;;;10307973;28;20239;-77
2022/10/21 23:21:46;;;;;;;7.22;2.25;;;;;14.10;100295.00;;;;10319637;28;20246;-78
2022/10/21 23:26:48;;;;;;;8.52;3.22;;;;;14.00;100296.00;;;;10309990;28;20218;-78
2022/10/21 23:31:50;;;;;;;6.93;2.35;;;;;14.10;100303.00;;;;10311921;28;20232;-78
2022/10/21 23:36:52;;;;;;;8.70;2.67;;;;;14.10;100304.00;;;;10280326;28;20679;-78
2022/10/21 23:41:54;;;;;;;7.93;2.88;;;;;14.10;100298.00;;;;10299361;28;20192;-78
2022/10/21 23:46:56;;;;;;;4.18;2.60;;;;;14.10;100300.00;;;;10331043;28;20287;-78
2022/10/21 23:51:58;;;;;;;8.82;2.60;;;;;14.20;100302.00;;;;10320189;28;20200;-78
2022/10/21 23:57:00;;;;;;;9.45;2.85;;;;;14.20;100302.00;;;;10304338;28;20200;-78
